createdAt,value
2022-11-01T00:01:53.733Z,28.13
2022-11-01T00:04:20.711Z,34.85
2022-11-01T00:06:47.454Z,37.50
2022-11-01T00:09:13.991Z,40.63
2022-11-01T00:11:40.425Z,35.35
2022-11-01T00:14:07.935Z,35.63
2022-11-01T00:16:34.457Z,31.95
2022-11-01T00:19:00.837Z,39.38
2022-11-01T00:21:27.298Z,33.90
2022-11-01T00:23:53.727Z,39.50
2022-11-01T00:26:22.350Z,42.10
2022-11-01T00:28:49.524Z,32.65
2022-11-01T00:31:17.996Z,41.83
2022-11-01T00:33:44.477Z,39.95
2022-11-01T00:36:10.894Z,42.70
2022-11-01T00:38:37.487Z,39.40
2022-11-01T00:41:04.540Z,34.75
2022-11-01T00:43:35.324Z,36.72
2022-11-01T00:46:02.094Z,38.83
2022-11-01T00:48:29.111Z,39.35
2022-11-01T00:50:55.705Z,35.97
2022-11-01T00:53:22.185Z,30.27
2022-11-01T00:55:48.656Z,32.85
2022-11-01T00:58:15.088Z,34.80
2022-11-01T01:00:41.722Z,31.75
2022-11-01T01:03:08.443Z,40.30
2022-11-01T01:05:35.967Z,30.98
2022-11-01T01:08:03.012Z,29.58
2022-11-01T01:10:29.387Z,36.17
2022-11-01T01:12:56.019Z,41.35
2022-11-01T01:15:22.427Z,30.40
2022-11-01T01:17:48.823Z,35.92
2022-11-01T01:20:15.294Z,36.80
2022-11-01T01:22:42.541Z,32.25
2022-11-01T01:25:10.287Z,35.60
2022-11-01T01:27:36.708Z,31.05
2022-11-01T01:30:05.357Z,26.17
2022-11-01T01:32:31.831Z,24.30
2022-11-01T01:34:58.314Z,25.30
2022-11-01T01:37:24.887Z,26.63
2022-11-01T01:39:51.307Z,31.08
2022-11-01T01:42:23.724Z,23.95
2022-11-01T01:44:55.964Z,29.15
2022-11-01T01:47:31.893Z,29.83
2022-11-01T01:50:15.032Z,30.33
2022-11-01T01:52:51.069Z,26.40
2022-11-01T01:55:26.543Z,28.98
2022-11-01T01:57:55.516Z,28.40
2022-11-01T02:00:22.415Z,30.13
2022-11-01T02:02:48.912Z,25.02
2022-11-01T02:05:29.266Z,26.98
2022-11-01T02:07:56.749Z,31.75
2022-11-01T02:10:23.612Z,28.30
2022-11-01T02:12:50.385Z,27.00
2022-11-01T02:15:18.906Z,26.02
2022-11-01T02:17:57.065Z,32.80
2022-11-01T02:20:49.033Z,30.45
2022-11-01T02:23:30.316Z,27.17
2022-11-01T02:26:19.745Z,27.55
2022-11-01T02:29:03.259Z,30.50
2022-11-01T02:31:56.324Z,26.10
2022-11-01T02:34:29.683Z,23.80
2022-11-01T02:37:20.502Z,24.40
2022-11-01T02:39:54.238Z,27.85
2022-11-01T02:45:11.003Z,26.65
2022-11-01T02:47:40.186Z,28.23
2022-11-01T02:50:10.674Z,27.52
2022-11-01T02:52:39.040Z,25.75
2022-11-01T02:55:29.746Z,25.83
2022-11-01T02:58:04.492Z,24.85
2022-11-01T03:00:35.263Z,23.77
2022-11-01T03:03:16.757Z,28.48
2022-11-01T03:05:54.972Z,29.38
2022-11-01T03:08:29.933Z,31.35
2022-11-01T03:11:17.811Z,23.85
2022-11-01T03:13:50.152Z,23.67
2022-11-01T03:16:34.360Z,30.60
2022-11-01T03:19:18.861Z,24.15
2022-11-01T03:22:02.446Z,29.60
2022-11-01T03:24:33.148Z,30.83
2022-11-01T03:27:34.060Z,26.90
2022-11-01T03:30:18.579Z,24.90
2022-11-01T03:32:47.573Z,29.25
2022-11-01T03:35:19.547Z,27.77
2022-11-01T03:37:48.868Z,31.83
2022-11-01T03:40:17.999Z,25.70
2022-11-01T03:42:48.995Z,36.05
2022-11-01T03:47:54.321Z,24.05
2022-11-01T03:50:24.424Z,25.48
2022-11-01T03:52:51.062Z,22.73
2022-11-01T03:55:19.297Z,22.73
2022-11-01T03:57:51.037Z,28.63
2022-11-01T04:00:23.465Z,28.70
2022-11-01T04:02:51.841Z,29.48
2022-11-01T04:05:19.136Z,27.00
2022-11-01T04:07:45.886Z,26.00
2022-11-01T04:10:13.451Z,20.98
2022-11-01T04:12:40.375Z,28.42
2022-11-01T04:15:26.398Z,29.92
2022-11-01T04:21:22.506Z,27.25
2022-11-01T04:23:49.318Z,25.00
2022-11-01T04:26:21.032Z,30.75
2022-11-01T04:28:59.283Z,24.20
2022-11-01T04:31:30.114Z,22.58
2022-11-01T04:33:57.484Z,23.00
2022-11-01T04:36:24.683Z,16.48
2022-11-01T04:38:52.710Z,17.13
2022-11-01T04:41:19.841Z,20.80
2022-11-01T04:43:47.550Z,20.70
2022-11-01T04:46:14.669Z,22.88
2022-11-01T04:48:41.633Z,28.42
2022-11-01T04:51:09.195Z,17.15
2022-11-01T04:53:36.060Z,19.75
2022-11-01T04:56:04.785Z,19.30
2022-11-01T04:58:31.400Z,26.13
2022-11-01T05:00:57.859Z,25.20
2022-11-01T05:03:25.378Z,24.88
2022-11-01T05:05:52.022Z,19.58
2022-11-01T05:08:18.468Z,17.65
2022-11-01T05:10:45.025Z,20.58
2022-11-01T05:13:13.008Z,24.45
2022-11-01T05:15:39.962Z,17.45
2022-11-01T05:18:14.454Z,18.30
2022-11-01T05:20:40.966Z,21.92
2022-11-01T05:23:07.367Z,19.58
2022-11-01T05:25:37.057Z,18.63
2022-11-01T05:28:11.861Z,25.63
2022-11-01T05:30:38.971Z,25.98
2022-11-01T05:33:07.439Z,29.80
2022-11-01T05:35:35.898Z,20.35
2022-11-01T05:38:04.188Z,18.90
2022-11-01T05:40:31.189Z,21.65
2022-11-01T05:42:58.250Z,24.52
2022-11-01T05:45:24.902Z,21.55
2022-11-01T05:47:51.320Z,28.10
2022-11-01T05:50:18.053Z,28.38
2022-11-01T05:52:44.443Z,25.50
2022-11-01T05:55:11.700Z,21.85
2022-11-01T05:57:38.248Z,22.25
2022-11-01T06:00:06.375Z,22.23
2022-11-01T06:02:33.029Z,20.63
2022-11-01T06:05:02.798Z,18.48
2022-11-01T06:07:29.664Z,23.25
2022-11-01T06:09:56.151Z,21.65
2022-11-01T06:12:25.595Z,25.00
2022-11-01T06:14:52.320Z,23.77
2022-11-01T06:17:19.087Z,19.90
2022-11-01T06:19:45.573Z,21.42
2022-11-01T06:22:12.033Z,20.02
2022-11-01T06:24:38.561Z,21.98
2022-11-01T06:27:08.583Z,19.77
2022-11-01T06:29:36.464Z,25.50
2022-11-01T06:32:04.833Z,17.27
2022-11-01T06:34:31.615Z,21.02
2022-11-01T06:36:58.349Z,22.85
2022-11-01T06:39:24.895Z,17.05
2022-11-01T06:41:51.766Z,23.08
2022-11-01T06:44:18.328Z,19.88
2022-11-01T06:46:44.718Z,20.52
2022-11-01T06:49:16.322Z,20.05
2022-11-01T06:51:45.433Z,16.52
2022-11-01T06:54:11.890Z,24.55
2022-11-01T06:56:38.552Z,16.67
2022-11-01T06:59:05.021Z,19.30
2022-11-01T07:01:31.601Z,20.70
2022-11-01T07:03:58.126Z,20.15
2022-11-01T07:06:28.645Z,17.20
2022-11-01T07:08:55.544Z,18.50
2022-11-01T07:11:25.193Z,23.48
2022-11-01T07:13:53.899Z,18.45
2022-11-01T07:16:20.402Z,21.42
2022-11-01T07:18:46.890Z,25.40
2022-11-01T07:21:13.299Z,17.23
2022-11-01T07:23:39.870Z,23.55
2022-11-01T07:26:06.275Z,18.02
2022-11-01T07:28:32.755Z,15.57
2022-11-01T07:30:59.131Z,19.92
2022-11-01T07:33:25.662Z,19.50
2022-11-01T07:35:52.989Z,31.95
2022-11-01T07:38:19.705Z,17.50
2022-11-01T07:40:49.522Z,13.98
2022-11-01T07:43:17.466Z,17.05
2022-11-01T07:45:44.266Z,17.63
2022-11-01T07:48:13.096Z,19.13
2022-11-01T07:50:41.007Z,38.90
2022-11-01T07:53:13.487Z,16.10
2022-11-01T07:55:40.412Z,27.98
2022-11-01T07:58:07.806Z,16.45
2022-11-01T08:03:10.924Z,19.02
2022-11-01T08:05:38.034Z,17.83
2022-11-01T08:08:06.158Z,15.82
2022-11-01T08:10:33.838Z,15.35
2022-11-01T08:13:05.982Z,19.92
2022-11-01T08:15:33.657Z,18.63
2022-11-01T08:18:01.324Z,16.50
2022-11-01T08:20:28.305Z,15.20
2022-11-01T08:22:54.889Z,12.35
2022-11-01T08:25:21.816Z,13.27
2022-11-01T08:27:48.278Z,13.57
2022-11-01T08:30:17.617Z,16.35
2022-11-01T08:32:44.534Z,11.98
2022-11-01T08:35:13.878Z,12.05
2022-11-01T08:37:53.215Z,23.65
2022-11-01T08:40:20.981Z,15.38
2022-11-01T08:42:47.997Z,9.43
2022-11-01T08:45:15.525Z,11.27
2022-11-01T08:47:42.090Z,9.52
2022-11-01T08:50:11.388Z,8.98
2022-11-01T08:52:38.368Z,9.88
2022-11-01T08:55:05.497Z,9.38
2022-11-01T08:57:32.332Z,13.15
2022-11-01T08:59:59.033Z,8.23
2022-11-01T09:02:26.007Z,8.70
2022-11-01T09:04:52.829Z,8.55
2022-11-01T09:07:19.245Z,6.78
2022-11-01T09:09:46.535Z,7.45
2022-11-01T09:12:14.827Z,5.68
2022-11-01T09:14:41.689Z,7.22
2022-11-01T09:17:08.672Z,7.38
2022-11-01T09:19:35.085Z,6.60
2022-11-01T09:22:01.501Z,6.65
2022-11-01T09:24:27.935Z,6.97
2022-11-01T09:26:54.883Z,6.55
2022-11-01T09:29:21.545Z,7.95
2022-11-01T09:31:52.813Z,6.07
2022-11-01T09:34:20.352Z,10.73
2022-11-01T09:36:47.682Z,8.27
2022-11-01T09:39:16.391Z,6.07
2022-11-01T09:41:47.778Z,4.60
2022-11-01T09:44:25.514Z,7.10
2022-11-01T09:46:59.619Z,5.03
2022-11-01T09:49:33.280Z,6.45
2022-11-01T09:51:59.954Z,5.13
2022-11-01T09:54:28.456Z,6.00
2022-11-01T09:57:34.441Z,8.90
2022-11-01T10:00:07.900Z,5.30
2022-11-01T10:03:05.375Z,5.10
2022-11-01T10:05:39.769Z,9.40
2022-11-01T10:08:24.951Z,6.32
2022-11-01T10:11:27.059Z,9.23
2022-11-01T10:14:31.054Z,9.20
2022-11-01T10:17:06.412Z,4.28
2022-11-01T10:19:35.429Z,6.97
2022-11-01T10:22:13.462Z,4.15
2022-11-01T10:25:01.976Z,4.53
2022-11-01T10:27:53.549Z,17.02
2022-11-01T10:30:20.561Z,6.22
2022-11-01T10:33:02.332Z,6.25
2022-11-01T10:35:33.312Z,8.35
2022-11-01T10:38:49.610Z,7.82
2022-11-01T10:41:29.630Z,6.50
2022-11-01T10:44:02.281Z,8.45
2022-11-01T10:46:37.681Z,5.10
2022-11-01T10:49:10.926Z,13.82
2022-11-01T10:51:37.545Z,6.43
2022-11-01T10:54:11.189Z,5.20
2022-11-01T10:56:43.592Z,11.13
2022-11-01T10:59:20.838Z,8.00
2022-11-01T11:01:50.392Z,6.53
2022-11-01T11:04:21.560Z,7.90
2022-11-01T11:06:48.610Z,11.80
2022-11-01T11:09:19.963Z,7.63
2022-11-01T11:11:48.753Z,6.68
2022-11-01T11:14:17.519Z,12.35
2022-11-01T11:16:49.228Z,2.92
2022-11-01T11:19:34.381Z,6.25
2022-11-01T11:22:05.135Z,6.28
2022-11-01T11:24:33.455Z,6.47
2022-11-01T11:27:02.629Z,6.28
2022-11-01T11:29:36.722Z,8.35
2022-11-01T11:32:05.008Z,8.77
2022-11-01T11:34:38.012Z,4.80
2022-11-01T11:37:07.284Z,5.93
2022-11-01T11:39:36.757Z,8.48
2022-11-01T11:42:17.501Z,6.72
2022-11-01T11:44:52.049Z,9.48
2022-11-01T11:47:36.363Z,4.78
2022-11-01T11:50:19.345Z,7.63
2022-11-01T11:52:49.102Z,4.75
2022-11-01T11:55:36.666Z,5.60
2022-11-01T11:58:05.885Z,6.75
2022-11-01T12:00:37.529Z,7.43
2022-11-01T12:03:07.995Z,6.40
2022-11-01T12:05:34.870Z,5.30
2022-11-01T12:08:01.389Z,8.23
2022-11-01T12:10:34.281Z,5.20
2022-11-01T12:13:03.030Z,5.97
2022-11-01T12:15:38.341Z,5.65
2022-11-01T12:18:16.022Z,6.13
2022-11-01T12:20:47.996Z,5.22
2022-11-01T12:23:33.030Z,4.97
2022-11-01T12:26:04.642Z,4.35
2022-11-01T12:28:47.711Z,10.30
2022-11-01T12:31:17.995Z,4.75
2022-11-01T12:33:55.924Z,4.90
2022-11-01T12:36:30.568Z,6.95
2022-11-01T12:39:10.336Z,3.97
2022-11-01T12:41:44.043Z,3.40
2022-11-01T12:44:20.785Z,7.50
2022-11-01T12:47:19.781Z,2.42
2022-11-01T12:50:07.590Z,6.53
2022-11-01T12:52:47.554Z,3.05
2022-11-01T12:55:32.244Z,2.63
2022-11-01T12:57:59.449Z,5.68
2022-11-01T13:00:36.065Z,3.78
2022-11-01T13:03:18.054Z,3.97
2022-11-01T13:06:05.235Z,4.72
2022-11-01T13:08:47.917Z,5.03
2022-11-01T13:11:42.951Z,6.57
2022-11-01T13:14:12.315Z,6.43
2022-11-01T13:16:45.824Z,6.03
2022-11-01T13:19:47.568Z,7.60
2022-11-01T13:22:18.629Z,4.53
2022-11-01T13:24:57.031Z,5.55
2022-11-01T13:27:32.910Z,4.38
2022-11-01T13:30:15.122Z,3.72
2022-11-01T13:33:06.020Z,6.10
2022-11-01T13:35:57.332Z,4.78
2022-11-01T13:38:30.198Z,10.80
2022-11-01T13:41:07.885Z,8.13
2022-11-01T13:43:41.369Z,7.07
2022-11-01T13:46:23.890Z,6.63
2022-11-01T13:49:08.681Z,5.68
2022-11-01T13:51:35.010Z,4.72
2022-11-01T13:54:03.448Z,5.32
2022-11-01T13:56:50.123Z,4.03
2022-11-01T13:59:45.313Z,8.20
2022-11-01T14:02:24.183Z,3.75
2022-11-01T14:05:10.780Z,4.55
2022-11-01T14:07:44.604Z,4.30
2022-11-01T14:10:16.975Z,9.10
2022-11-01T14:12:48.309Z,2.80
2022-11-01T14:15:27.508Z,6.25
2022-11-01T14:17:57.912Z,5.32
2022-11-01T14:20:28.023Z,6.43
2022-11-01T14:22:56.269Z,8.93
2022-11-01T14:25:22.615Z,10.02
2022-11-01T14:27:52.067Z,6.68
2022-11-01T14:30:22.027Z,5.32
2022-11-01T14:33:03.174Z,6.00
2022-11-01T14:35:37.402Z,3.35
2022-11-01T14:38:10.076Z,5.15
2022-11-01T14:40:48.708Z,5.70
2022-11-01T14:43:22.944Z,5.53
2022-11-01T14:46:04.961Z,6.95
2022-11-01T14:48:53.326Z,6.30
2022-11-01T14:51:28.302Z,4.40
2022-11-01T14:54:20.170Z,6.57
2022-11-01T14:56:54.990Z,6.15
2022-11-01T14:59:29.244Z,6.85
2022-11-01T15:02:02.927Z,7.47
2022-11-01T15:04:42.241Z,9.70
2022-11-01T15:07:19.830Z,2.22
2022-11-01T15:10:02.821Z,5.47
2022-11-01T15:12:35.834Z,6.07
2022-11-01T15:15:02.875Z,4.40
2022-11-01T15:17:33.080Z,6.85
2022-11-01T15:20:03.207Z,4.97
2022-11-01T15:22:33.712Z,7.70
2022-11-01T15:25:05.510Z,5.78
2022-11-01T15:27:42.084Z,4.53
2022-11-01T15:30:24.643Z,5.38
2022-11-01T15:32:53.952Z,6.15
2022-11-01T15:35:26.028Z,3.97
2022-11-01T15:37:54.465Z,10.85
2022-11-01T15:40:27.864Z,6.38
2022-11-01T15:43:02.326Z,4.93
2022-11-01T15:45:31.080Z,5.57
2022-11-01T15:48:06.020Z,6.78
2022-11-01T15:50:36.834Z,9.45
2022-11-01T15:53:10.149Z,5.75
2022-11-01T15:58:15.793Z,7.03
2022-11-01T16:00:46.306Z,7.53
2022-11-01T16:03:27.518Z,4.35
2022-11-01T16:05:59.789Z,7.90
2022-11-01T16:08:35.261Z,7.40
2022-11-01T16:11:02.234Z,8.50
2022-11-01T16:13:31.081Z,8.77
2022-11-01T16:16:10.935Z,8.52
2022-11-01T16:18:40.506Z,5.65
2022-11-01T16:21:28.265Z,4.25
2022-11-01T16:24:03.985Z,9.13
2022-11-01T16:26:33.401Z,5.45
2022-11-01T16:28:59.804Z,3.30
2022-11-01T16:31:28.885Z,4.47
2022-11-01T16:33:57.026Z,7.30
2022-11-01T16:36:33.118Z,8.68
2022-11-01T16:38:59.529Z,4.50
2022-11-01T16:41:39.704Z,8.73
2022-11-01T16:44:16.006Z,5.45
2022-11-01T16:46:42.699Z,5.20
2022-11-01T16:49:21.067Z,10.30
2022-11-01T16:51:47.646Z,7.38
2022-11-01T16:54:14.127Z,9.32
2022-11-01T16:56:44.630Z,8.27
2022-11-01T16:59:34.321Z,7.80
2022-11-01T17:02:02.492Z,13.38
2022-11-01T17:04:29.621Z,6.95
2022-11-01T17:06:58.769Z,4.10
2022-11-01T17:09:29.286Z,3.80
2022-11-01T17:11:55.847Z,12.63
2022-11-01T17:14:22.390Z,8.80
2022-11-01T17:16:51.353Z,5.47
2022-11-01T17:19:32.033Z,10.25
2022-11-01T17:22:05.576Z,9.48
2022-11-01T17:24:33.337Z,7.35
2022-11-01T17:27:04.987Z,14.85
2022-11-01T17:29:33.043Z,13.20
2022-11-01T17:32:00.999Z,9.50
2022-11-01T17:34:28.868Z,5.85
2022-11-01T17:36:57.252Z,10.15
2022-11-01T17:39:29.184Z,6.55
2022-11-01T17:41:56.167Z,4.95
2022-11-01T17:44:23.155Z,3.63
2022-11-01T17:46:49.607Z,12.40
2022-11-01T17:49:16.747Z,7.00
2022-11-01T17:51:43.280Z,8.82
2022-11-01T17:54:10.631Z,5.75
2022-11-01T17:56:37.204Z,5.70
2022-11-01T17:59:03.813Z,6.97
2022-11-01T18:01:30.469Z,6.63
2022-11-01T18:03:56.990Z,5.18
2022-11-01T18:06:23.878Z,7.80
2022-11-01T18:08:51.546Z,9.95
2022-11-01T18:11:39.490Z,6.25
2022-11-01T18:14:19.919Z,6.95
2022-11-01T18:16:49.228Z,9.30
2022-11-01T18:19:34.960Z,20.42
2022-11-01T18:22:13.027Z,8.10
2022-11-01T18:24:46.590Z,4.38
2022-11-01T18:27:13.734Z,8.50
2022-11-01T18:29:45.072Z,4.05
2022-11-01T18:32:23.101Z,7.97
2022-11-01T18:35:03.422Z,7.47
2022-11-01T18:37:47.078Z,4.88
2022-11-01T18:40:23.162Z,6.10
2022-11-01T18:42:51.257Z,7.28
2022-11-01T18:45:31.027Z,7.15
2022-11-01T18:48:12.879Z,4.60
2022-11-01T18:50:39.384Z,6.88
2022-11-01T18:53:05.924Z,7.82
2022-11-01T18:55:33.353Z,5.50
2022-11-01T18:58:13.647Z,6.38
2022-11-01T19:00:40.927Z,6.75
2022-11-01T19:03:15.256Z,8.80
2022-11-01T19:05:41.946Z,8.63
2022-11-01T19:08:22.617Z,14.43
2022-11-01T19:10:49.538Z,8.32
2022-11-01T19:13:34.145Z,15.15
2022-11-01T19:16:01.950Z,13.90
2022-11-01T19:18:28.882Z,7.65
2022-11-01T19:20:57.980Z,9.48
2022-11-01T19:23:40.315Z,7.55
2022-11-01T19:26:25.808Z,8.07
2022-11-01T19:28:53.323Z,8.07
2022-11-01T19:31:39.273Z,9.27
2022-11-01T19:34:13.573Z,6.25
2022-11-01T19:36:44.507Z,5.35
2022-11-01T19:39:24.756Z,4.35
2022-11-01T19:41:53.142Z,14.13
2022-11-01T19:44:22.497Z,9.35
2022-11-01T19:46:52.257Z,7.10
2022-11-01T19:49:25.235Z,7.05
2022-11-01T19:52:12.220Z,8.23
2022-11-01T19:54:41.475Z,8.50
2022-11-01T19:57:28.439Z,8.20
2022-11-01T20:00:14.819Z,6.15
2022-11-01T20:02:41.333Z,4.95
2022-11-01T20:05:25.583Z,8.52
2022-11-01T20:08:00.532Z,7.47
2022-11-01T20:10:27.323Z,4.35
2022-11-01T20:12:53.727Z,5.20
2022-11-01T20:15:20.118Z,5.47
2022-11-01T20:17:46.616Z,6.20
2022-11-01T20:20:14.456Z,4.97
2022-11-01T20:22:42.043Z,13.15
2022-11-01T20:25:10.301Z,11.32
2022-11-01T20:27:36.688Z,13.77
2022-11-01T20:30:03.603Z,11.23
2022-11-01T20:32:30.142Z,5.50
2022-11-01T20:34:57.747Z,12.20
2022-11-01T20:37:29.055Z,14.35
2022-11-01T20:39:55.966Z,12.50
2022-11-01T20:42:22.853Z,6.85
2022-11-01T20:44:49.990Z,9.35
2022-11-01T20:47:16.414Z,10.68
2022-11-01T20:49:42.864Z,9.18
2022-11-01T20:52:33.746Z,14.73
2022-11-01T20:54:55.658Z,7.22
2022-11-01T20:57:28.031Z,13.20
2022-11-01T20:59:55.660Z,10.15
2022-11-01T21:02:22.588Z,12.07
2022-11-01T21:04:59.576Z,10.80
2022-11-01T21:07:29.999Z,7.20
2022-11-01T21:09:56.928Z,11.23
2022-11-01T21:12:49.591Z,9.52
2022-11-01T21:15:28.367Z,10.88
2022-11-01T21:18:22.993Z,10.20
2022-11-01T21:20:49.622Z,10.40
2022-11-01T21:23:32.262Z,14.93
2022-11-01T21:26:10.642Z,13.00
2022-11-01T21:28:47.737Z,9.43
2022-11-01T21:31:14.023Z,9.50
2022-11-01T21:33:51.110Z,11.25
2022-11-01T21:36:20.483Z,8.82
2022-11-01T21:39:11.083Z,10.68
2022-11-01T21:41:45.923Z,9.95
2022-11-01T21:44:18.126Z,9.52
2022-11-01T21:46:53.760Z,9.88
2022-11-01T21:49:38.211Z,8.93
2022-11-01T21:52:07.075Z,13.02
2022-11-01T21:54:35.577Z,7.97
2022-11-01T21:57:03.137Z,9.30
2022-11-01T21:59:30.211Z,12.25
2022-11-01T22:01:57.975Z,14.13
2022-11-01T22:04:28.492Z,10.35
2022-11-01T22:06:56.554Z,10.38
2022-11-01T22:09:23.273Z,9.88
2022-11-01T22:11:49.730Z,12.30
2022-11-01T22:14:16.103Z,9.65
2022-11-01T22:16:42.517Z,9.60
2022-11-01T22:19:09.329Z,12.02
2022-11-01T22:21:35.864Z,11.68
2022-11-01T22:24:03.358Z,12.00
2022-11-01T22:26:29.775Z,13.80
2022-11-01T22:28:56.223Z,12.98
2022-11-01T22:31:23.256Z,11.90
2022-11-01T22:33:54.852Z,8.27
2022-11-01T22:36:25.274Z,12.73
2022-11-01T22:39:01.100Z,14.23
2022-11-01T22:41:32.726Z,11.20
2022-11-01T22:44:04.403Z,8.13
2022-11-01T22:46:43.591Z,13.77
2022-11-01T22:49:22.445Z,11.20
2022-11-01T22:51:59.888Z,17.45
2022-11-01T22:54:38.920Z,13.90
2022-11-01T22:57:08.264Z,15.45
2022-11-01T23:00:00.742Z,13.05
2022-11-01T23:02:30.088Z,8.00
2022-11-01T23:05:02.625Z,13.32
2022-11-01T23:07:34.738Z,10.80
2022-11-01T23:10:07.103Z,12.23
2022-11-01T23:12:54.816Z,12.20
2022-11-01T23:15:30.060Z,10.88
2022-11-01T23:18:12.954Z,11.73
2022-11-01T23:20:40.722Z,9.85
2022-11-01T23:23:18.550Z,13.35
2022-11-01T23:25:45.166Z,13.07
2022-11-01T23:28:12.982Z,7.07
2022-11-01T23:30:41.716Z,11.82
2022-11-01T23:33:17.411Z,13.02
2022-11-01T23:35:52.019Z,9.57
2022-11-01T23:38:22.814Z,13.07
2022-11-01T23:40:53.268Z,8.70
2022-11-01T23:43:36.060Z,10.57
2022-11-01T23:46:02.553Z,10.43
2022-11-01T23:48:29.266Z,16.15
2022-11-01T23:50:56.550Z,12.68
2022-11-01T23:53:31.987Z,8.43
2022-11-01T23:56:00.018Z,16.35
